sensor_id;sensor_type;location;lat;lon;timestamp;temperature;humidity
32612;DHT22;19030;49.478;8.986;2022-10-18T00:00:47;13.90;99.90
32612;DHT22;19030;49.478;8.986;2022-10-18T00:02:48;13.90;99.90
32612;DHT22;19030;49.478;8.986;2022-10-18T00:04:48;13.90;99.90
32612;DHT22;19030;49.478;8.986;2022-10-18T00:06:49;13.90;99.90
32612;DHT22;19030;49.478;8.986;2022-10-18T00:08:49;13.90;99.90
32612;DHT22;19030;49.478;8.986;2022-10-18T00:10:50;13.80;99.90
32612;DHT22;19030;49.478;8.986;2022-10-18T00:12:51;13.80;99.90
32612;DHT22;19030;49.478;8.986;2022-10-18T00:14:52;13.80;99.90
32612;DHT22;19030;49.478;8.986;2022-10-18T00:16:53;13.80;99.90
32612;DHT22;19030;49.478;8.986;2022-10-18T00:18:53;13.90;99.90
32612;DHT22;19030;49.478;8.986;2022-10-18T00:21:04;13.80;99.90
32612;DHT22;19030;49.478;8.986;2022-10-18T00:23:05;13.80;99.90
32612;DHT22;19030;49.478;8.986;2022-10-18T00:25:06;13.90;99.90
32612;DHT22;19030;49.478;8.986;2022-10-18T00:27:07;13.90;99.90
32612;DHT22;19030;49.478;8.986;2022-10-18T00:29:12;13.90;99.90
32612;DHT22;19030;49.478;8.986;2022-10-18T00:33:21;13.90;99.90
32612;DHT22;19030;49.478;8.986;2022-10-18T00:35:21;14.00;99.90
32612;DHT22;19030;49.478;8.986;2022-10-18T00:37:22;14.00;99.90
32612;DHT22;19030;49.478;8.986;2022-10-18T00:39:22;14.00;99.90
32612;DHT22;19030;49.478;8.986;2022-10-18T00:41:31;14.00;99.90
32612;DHT22;19030;49.478;8.986;2022-10-18T00:43:32;14.00;99.90
32612;DHT22;19030;49.478;8.986;2022-10-18T00:45:33;14.00;99.90
32612;DHT22;19030;49.478;8.986;2022-10-18T00:47:33;14.00;99.90
32612;DHT22;19030;49.478;8.986;2022-10-18T00:49:38;14.00;99.90
32612;DHT22;19030;49.478;8.986;2022-10-18T00:51:43;13.90;99.90
32612;DHT22;19030;49.478;8.986;2022-10-18T00:53:44;14.00;99.90
32612;DHT22;19030;49.478;8.986;2022-10-18T00:55:45;14.00;99.90
32612;DHT22;19030;49.478;8.986;2022-10-18T00:57:47;14.00;99.90
32612;DHT22;19030;49.478;8.986;2022-10-18T00:59:48;14.00;99.90
32612;DHT22;19030;49.478;8.986;2022-10-18T02:01:19;14.10;99.90
32612;DHT22;19030;49.478;8.986;2022-10-18T02:03:26;14.10;99.90
32612;DHT22;19030;49.478;8.986;2022-10-18T02:05:57;14.10;99.90
32612;DHT22;19030;49.478;8.986;2022-10-18T02:08:11;14.10;99.90
32612;DHT22;19030;49.478;8.986;2022-10-18T02:12:50;14.10;99.90
32612;DHT22;19030;49.478;8.986;2022-10-18T02:14:51;14.10;99.90
32612;DHT22;19030;49.478;8.986;2022-10-18T02:16:58;14.00;99.90
32612;DHT22;19030;49.478;8.986;2022-10-18T02:19:15;14.10;99.90
32612;DHT22;19030;49.478;8.986;2022-10-18T02:21:18;14.00;99.90
32612;DHT22;19030;49.478;8.986;2022-10-18T02:23:22;14.10;99.90
32612;DHT22;19030;49.478;8.986;2022-10-18T02:25:26;14.10;99.90
32612;DHT22;19030;49.478;8.986;2022-10-18T02:27:28;14.10;99.90
32612;DHT22;19030;49.478;8.986;2022-10-18T02:29:29;14.10;99.90
32612;DHT22;19030;49.478;8.986;2022-10-18T02:33:53;14.10;99.90
32612;DHT22;19030;49.478;8.986;2022-10-18T02:36:00;14.10;99.90
32612;DHT22;19030;49.478;8.986;2022-10-18T02:38:03;14.10;99.90
32612;DHT22;19030;49.478;8.986;2022-10-18T02:40:07;14.10;99.90
32612;DHT22;19030;49.478;8.986;2022-10-18T02:42:09;14.10;99.90
32612;DHT22;19030;49.478;8.986;2022-10-18T02:44:10;14.10;99.90
32612;DHT22;19030;49.478;8.986;2022-10-18T02:46:11;14.00;99.90
32612;DHT22;19030;49.478;8.986;2022-10-18T02:48:11;14.00;99.90
32612;DHT22;19030;49.478;8.986;2022-10-18T02:50:12;14.00;99.90
32612;DHT22;19030;49.478;8.986;2022-10-18T02:52:13;14.00;99.90
32612;DHT22;19030;49.478;8.986;2022-10-18T02:54:13;14.00;99.90
32612;DHT22;19030;49.478;8.986;2022-10-18T02:56:14;14.00;99.90
32612;DHT22;19030;49.478;8.986;2022-10-18T02:58:14;14.00;99.90
32612;DHT22;19030;49.478;8.986;2022-10-18T03:00:15;14.00;99.90
32612;DHT22;19030;49.478;8.986;2022-10-18T03:02:16;14.00;99.90
32612;DHT22;19030;49.478;8.986;2022-10-18T03:04:16;14.00;99.90
32612;DHT22;19030;49.478;8.986;2022-10-18T03:08:19;14.00;99.90
32612;DHT22;19030;49.478;8.986;2022-10-18T03:10:19;14.00;99.90
32612;DHT22;19030;49.478;8.986;2022-10-18T03:12:20;14.00;99.90
32612;DHT22;19030;49.478;8.986;2022-10-18T03:14:20;14.10;99.90
32612;DHT22;19030;49.478;8.986;2022-10-18T03:16:21;14.10;99.90
32612;DHT22;19030;49.478;8.986;2022-10-18T03:18:22;14.10;99.90
32612;DHT22;19030;49.478;8.986;2022-10-18T03:20:22;14.10;99.90
32612;DHT22;19030;49.478;8.986;2022-10-18T03:22:23;14.10;99.90
32612;DHT22;19030;49.478;8.986;2022-10-18T03:24:24;14.10;99.90
32612;DHT22;19030;49.478;8.986;2022-10-18T03:26:25;14.10;99.90
32612;DHT22;19030;49.478;8.986;2022-10-18T03:28:26;14.10;99.90
32612;DHT22;19030;49.478;8.986;2022-10-18T03:30:26;14.10;99.90
32612;DHT22;19030;49.478;8.986;2022-10-18T03:32:27;14.10;99.90
32612;DHT22;19030;49.478;8.986;2022-10-18T03:34:28;14.10;99.90
32612;DHT22;19030;49.478;8.986;2022-10-18T03:36:28;14.10;99.90
32612;DHT22;19030;49.478;8.986;2022-10-18T03:38:29;14.10;99.90
32612;DHT22;19030;49.478;8.986;2022-10-18T03:40:29;14.10;99.90
32612;DHT22;19030;49.478;8.986;2022-10-18T03:42:30;14.10;99.90
32612;DHT22;19030;49.478;8.986;2022-10-18T03:44:31;14.10;99.90
32612;DHT22;19030;49.478;8.986;2022-10-18T03:46:31;14.10;99.90
32612;DHT22;19030;49.478;8.986;2022-10-18T03:48:32;14.10;99.90
32612;DHT22;19030;49.478;8.986;2022-10-18T03:50:32;14.10;99.90
32612;DHT22;19030;49.478;8.986;2022-10-18T03:52:33;14.10;99.90
32612;DHT22;19030;49.478;8.986;2022-10-18T03:54:34;14.10;99.90
32612;DHT22;19030;49.478;8.986;2022-10-18T03:56:34;14.10;99.90
32612;DHT22;19030;49.478;8.986;2022-10-18T03:58:35;14.10;99.90
32612;DHT22;19030;49.478;8.986;2022-10-18T04:00:35;14.10;99.90
32612;DHT22;19030;49.478;8.986;2022-10-18T04:02:36;14.10;99.90
32612;DHT22;19030;49.478;8.986;2022-10-18T04:04:36;14.10;99.90
32612;DHT22;19030;49.478;8.986;2022-10-18T04:06:37;14.00;99.90
32612;DHT22;19030;49.478;8.986;2022-10-18T04:08:38;14.00;99.90
32612;DHT22;19030;49.478;8.986;2022-10-18T04:10:38;14.00;99.90
32612;DHT22;19030;49.478;8.986;2022-10-18T04:12:39;14.00;99.90
32612;DHT22;19030;49.478;8.986;2022-10-18T04:14:39;14.00;99.90
32612;DHT22;19030;49.478;8.986;2022-10-18T04:16:40;13.90;99.90
32612;DHT22;19030;49.478;8.986;2022-10-18T04:18:41;13.90;99.90
32612;DHT22;19030;49.478;8.986;2022-10-18T04:20:41;14.00;99.90
32612;DHT22;19030;49.478;8.986;2022-10-18T04:22:42;14.00;99.90
32612;DHT22;19030;49.478;8.986;2022-10-18T04:24:42;14.00;99.90
32612;DHT22;19030;49.478;8.986;2022-10-18T04:26:43;14.00;99.90
32612;DHT22;19030;49.478;8.986;2022-10-18T04:28:44;14.00;99.90
32612;DHT22;19030;49.478;8.986;2022-10-18T04:30:51;14.00;99.90
32612;DHT22;19030;49.478;8.986;2022-10-18T04:32:52;14.00;99.90
32612;DHT22;19030;49.478;8.986;2022-10-18T04:34:52;14.00;99.90
32612;DHT22;19030;49.478;8.986;2022-10-18T04:36:53;14.00;99.90
32612;DHT22;19030;49.478;8.986;2022-10-18T04:38:53;14.00;99.90
32612;DHT22;19030;49.478;8.986;2022-10-18T04:40:54;14.00;99.90
32612;DHT22;19030;49.478;8.986;2022-10-18T04:42:55;14.00;99.90
32612;DHT22;19030;49.478;8.986;2022-10-18T04:44:55;14.00;99.90
32612;DHT22;19030;49.478;8.986;2022-10-18T04:47:05;14.00;99.90
32612;DHT22;19030;49.478;8.986;2022-10-18T04:49:05;14.00;99.90
32612;DHT22;19030;49.478;8.986;2022-10-18T04:51:06;14.00;99.90
32612;DHT22;19030;49.478;8.986;2022-10-18T04:53:07;14.00;99.90
32612;DHT22;19030;49.478;8.986;2022-10-18T04:55:07;13.90;99.90
32612;DHT22;19030;49.478;8.986;2022-10-18T04:57:08;13.90;99.90
32612;DHT22;19030;49.478;8.986;2022-10-18T04:59:08;13.90;99.90
32612;DHT22;19030;49.478;8.986;2022-10-18T05:01:09;13.90;99.90
32612;DHT22;19030;49.478;8.986;2022-10-18T05:03:11;13.80;99.90
32612;DHT22;19030;49.478;8.986;2022-10-18T05:05:12;13.70;99.90
32612;DHT22;19030;49.478;8.986;2022-10-18T05:07:13;13.70;99.90
32612;DHT22;19030;49.478;8.986;2022-10-18T05:09:14;13.70;99.90
32612;DHT22;19030;49.478;8.986;2022-10-18T05:11:15;13.60;99.90
32612;DHT22;19030;49.478;8.986;2022-10-18T05:13:15;13.60;99.90
32612;DHT22;19030;49.478;8.986;2022-10-18T05:15:16;13.60;99.90
32612;DHT22;19030;49.478;8.986;2022-10-18T05:17:16;13.50;99.90
32612;DHT22;19030;49.478;8.986;2022-10-18T05:19:17;13.50;99.90
32612;DHT22;19030;49.478;8.986;2022-10-18T05:21:18;13.50;99.90
32612;DHT22;19030;49.478;8.986;2022-10-18T05:23:18;13.40;99.90
32612;DHT22;19030;49.478;8.986;2022-10-18T05:25:19;13.40;99.90
32612;DHT22;19030;49.478;8.986;2022-10-18T05:27:19;13.40;99.90
32612;DHT22;19030;49.478;8.986;2022-10-18T05:29:20;13.40;99.90
32612;DHT22;19030;49.478;8.986;2022-10-18T05:31:21;13.40;99.90
32612;DHT22;19030;49.478;8.986;2022-10-18T05:33:21;13.40;99.90
32612;DHT22;19030;49.478;8.986;2022-10-18T05:35:22;13.40;99.90
32612;DHT22;19030;49.478;8.986;2022-10-18T05:37:22;13.40;99.90
32612;DHT22;19030;49.478;8.986;2022-10-18T05:39:23;13.30;99.90
32612;DHT22;19030;49.478;8.986;2022-10-18T05:41:23;13.40;99.90
32612;DHT22;19030;49.478;8.986;2022-10-18T05:43:27;13.30;99.90
32612;DHT22;19030;49.478;8.986;2022-10-18T05:45:28;13.30;99.90
32612;DHT22;19030;49.478;8.986;2022-10-18T05:47:28;13.30;99.90
32612;DHT22;19030;49.478;8.986;2022-10-18T05:49:29;13.30;99.90
32612;DHT22;19030;49.478;8.986;2022-10-18T05:51:29;13.30;99.90
32612;DHT22;19030;49.478;8.986;2022-10-18T05:53:30;13.30;99.90
32612;DHT22;19030;49.478;8.986;2022-10-18T05:55:31;13.40;99.90
32612;DHT22;19030;49.478;8.986;2022-10-18T05:57:31;13.40;99.90
32612;DHT22;19030;49.478;8.986;2022-10-18T05:59:32;13.40;99.90
32612;DHT22;19030;49.478;8.986;2022-10-18T06:01:32;13.50;99.90
32612;DHT22;19030;49.478;8.986;2022-10-18T06:03:33;13.50;99.90
32612;DHT22;19030;49.478;8.986;2022-10-18T06:05:34;13.50;99.90
32612;DHT22;19030;49.478;8.986;2022-10-18T06:07:34;13.50;99.90
32612;DHT22;19030;49.478;8.986;2022-10-18T06:09:35;13.60;99.90
32612;DHT22;19030;49.478;8.986;2022-10-18T06:11:36;13.60;99.90
32612;DHT22;19030;49.478;8.986;2022-10-18T06:13:45;13.70;99.90
32612;DHT22;19030;49.478;8.986;2022-10-18T06:15:46;13.70;99.90
32612;DHT22;19030;49.478;8.986;2022-10-18T06:17:47;13.80;99.90
32612;DHT22;19030;49.478;8.986;2022-10-18T06:19:47;13.90;99.90
32612;DHT22;19030;49.478;8.986;2022-10-18T06:21:48;14.00;99.90
32612;DHT22;19030;49.478;8.986;2022-10-18T06:23:50;14.00;99.90
32612;DHT22;19030;49.478;8.986;2022-10-18T06:25:51;14.00;99.90
32612;DHT22;19030;49.478;8.986;2022-10-18T06:27:51;14.00;99.90
32612;DHT22;19030;49.478;8.986;2022-10-18T06:29:52;14.10;99.90
32612;DHT22;19030;49.478;8.986;2022-10-18T06:31:52;14.10;99.90
32612;DHT22;19030;49.478;8.986;2022-10-18T06:33:55;14.20;99.90
32612;DHT22;19030;49.478;8.986;2022-10-18T06:35:59;14.20;99.90
32612;DHT22;19030;49.478;8.986;2022-10-18T06:37:59;14.20;99.90
32612;DHT22;19030;49.478;8.986;2022-10-18T06:40:00;14.20;99.90
32612;DHT22;19030;49.478;8.986;2022-10-18T06:42:01;14.20;99.90
32612;DHT22;19030;49.478;8.986;2022-10-18T06:44:05;14.20;99.90
32612;DHT22;19030;49.478;8.986;2022-10-18T06:46:13;14.20;99.90
32612;DHT22;19030;49.478;8.986;2022-10-18T06:48:13;14.20;99.90
32612;DHT22;19030;49.478;8.986;2022-10-18T06:50:14;14.20;99.90
32612;DHT22;19030;49.478;8.986;2022-10-18T06:52:17;14.20;99.90
32612;DHT22;19030;49.478;8.986;2022-10-18T06:54:20;14.20;99.90
32612;DHT22;19030;49.478;8.986;2022-10-18T06:56:20;14.20;99.90
32612;DHT22;19030;49.478;8.986;2022-10-18T06:58:21;14.20;99.90
32612;DHT22;19030;49.478;8.986;2022-10-18T07:00:22;14.30;99.90
32612;DHT22;19030;49.478;8.986;2022-10-18T07:02:22;14.30;99.90
32612;DHT22;19030;49.478;8.986;2022-10-18T07:04:23;14.30;99.90
32612;DHT22;19030;49.478;8.986;2022-10-18T07:06:23;14.30;99.90
32612;DHT22;19030;49.478;8.986;2022-10-18T07:08:24;14.30;99.90
32612;DHT22;19030;49.478;8.986;2022-10-18T07:10:24;14.40;99.90
32612;DHT22;19030;49.478;8.986;2022-10-18T07:12:25;14.40;99.90
32612;DHT22;19030;49.478;8.986;2022-10-18T07:14:26;14.50;99.90
32612;DHT22;19030;49.478;8.986;2022-10-18T07:16:26;14.50;99.90
32612;DHT22;19030;49.478;8.986;2022-10-18T07:18:27;14.60;99.90
32612;DHT22;19030;49.478;8.986;2022-10-18T07:20:27;14.70;99.90
32612;DHT22;19030;49.478;8.986;2022-10-18T07:22:29;14.70;99.90
32612;DHT22;19030;49.478;8.986;2022-10-18T07:24:29;14.70;99.90
32612;DHT22;19030;49.478;8.986;2022-10-18T07:26:32;14.80;99.90
32612;DHT22;19030;49.478;8.986;2022-10-18T07:28:33;14.80;99.90
32612;DHT22;19030;49.478;8.986;2022-10-18T07:30:34;14.90;99.90
32612;DHT22;19030;49.478;8.986;2022-10-18T07:32:35;14.90;99.90
32612;DHT22;19030;49.478;8.986;2022-10-18T07:34:35;15.00;99.90
32612;DHT22;19030;49.478;8.986;2022-10-18T07:36:36;15.20;99.90
32612;DHT22;19030;49.478;8.986;2022-10-18T07:38:37;15.40;99.90
32612;DHT22;19030;49.478;8.986;2022-10-18T07:40:37;15.60;99.90
32612;DHT22;19030;49.478;8.986;2022-10-18T07:42:38;15.70;99.90
32612;DHT22;19030;49.478;8.986;2022-10-18T07:44:38;15.90;99.90
32612;DHT22;19030;49.478;8.986;2022-10-18T07:46:39;16.10;99.90
32612;DHT22;19030;49.478;8.986;2022-10-18T07:48:40;16.40;99.90
32612;DHT22;19030;49.478;8.986;2022-10-18T07:50:40;16.60;99.90
32612;DHT22;19030;49.478;8.986;2022-10-18T07:52:41;16.70;99.90
32612;DHT22;19030;49.478;8.986;2022-10-18T07:54:41;16.70;99.90
32612;DHT22;19030;49.478;8.986;2022-10-18T07:56:42;16.50;99.90
32612;DHT22;19030;49.478;8.986;2022-10-18T07:58:43;16.30;99.90
32612;DHT22;19030;49.478;8.986;2022-10-18T08:00:44;16.20;99.90
32612;DHT22;19030;49.478;8.986;2022-10-18T08:02:45;16.00;99.90
32612;DHT22;19030;49.478;8.986;2022-10-18T08:04:45;16.00;99.90
32612;DHT22;19030;49.478;8.986;2022-10-18T08:06:46;16.00;99.90
32612;DHT22;19030;49.478;8.986;2022-10-18T08:08:47;15.90;99.90
32612;DHT22;19030;49.478;8.986;2022-10-18T08:10:48;15.90;99.90
32612;DHT22;19030;49.478;8.986;2022-10-18T08:12:49;15.90;99.90
32612;DHT22;19030;49.478;8.986;2022-10-18T08:14:50;16.00;99.90
32612;DHT22;19030;49.478;8.986;2022-10-18T08:16:51;15.90;99.90
32612;DHT22;19030;49.478;8.986;2022-10-18T08:18:52;16.00;99.90
32612;DHT22;19030;49.478;8.986;2022-10-18T08:20:52;16.00;99.90
32612;DHT22;19030;49.478;8.986;2022-10-18T08:22:53;16.00;99.90
32612;DHT22;19030;49.478;8.986;2022-10-18T08:24:53;16.00;99.90
32612;DHT22;19030;49.478;8.986;2022-10-18T08:26:54;16.00;99.90
32612;DHT22;19030;49.478;8.986;2022-10-18T08:28:55;16.00;99.90
32612;DHT22;19030;49.478;8.986;2022-10-18T08:30:55;16.00;99.90
32612;DHT22;19030;49.478;8.986;2022-10-18T08:32:56;16.00;99.90
32612;DHT22;19030;49.478;8.986;2022-10-18T08:34:56;16.00;99.90
32612;DHT22;19030;49.478;8.986;2022-10-18T08:36:57;16.00;99.90
32612;DHT22;19030;49.478;8.986;2022-10-18T08:38:57;16.00;99.90
32612;DHT22;19030;49.478;8.986;2022-10-18T08:45:56;16.00;99.90
32612;DHT22;19030;49.478;8.986;2022-10-18T08:47:57;16.00;99.90
32612;DHT22;19030;49.478;8.986;2022-10-18T08:50:02;16.10;99.90
32612;DHT22;19030;49.478;8.986;2022-10-18T08:52:12;16.10;99.90
32612;DHT22;19030;49.478;8.986;2022-10-18T08:54:21;16.30;99.90
32612;DHT22;19030;49.478;8.986;2022-10-18T08:56:23;16.50;99.90
32612;DHT22;19030;49.478;8.986;2022-10-18T08:58:28;16.90;99.90
32612;DHT22;19030;49.478;8.986;2022-10-18T09:00:33;17.20;99.90
32612;DHT22;19030;49.478;8.986;2022-10-18T09:07:11;17.60;99.90
32612;DHT22;19030;49.478;8.986;2022-10-18T09:09:23;17.40;99.90
32612;DHT22;19030;49.478;8.986;2022-10-18T09:11:43;17.30;99.90
32612;DHT22;19030;49.478;8.986;2022-10-18T09:18:08;17.40;99.90
32612;DHT22;19030;49.478;8.986;2022-10-18T09:24:43;18.40;99.90
32612;DHT22;19030;49.478;8.986;2022-10-18T09:26:47;18.70;99.90
32612;DHT22;19030;49.478;8.986;2022-10-18T09:33:58;19.20;99.90
32612;DHT22;19030;49.478;8.986;2022-10-18T09:36:25;19.20;99.90
32612;DHT22;19030;49.478;8.986;2022-10-18T09:38:28;19.40;99.90
32612;DHT22;19030;49.478;8.986;2022-10-18T09:40:34;20.10;99.90
32612;DHT22;19030;49.478;8.986;2022-10-18T09:42:38;23.10;99.90
32612;DHT22;19030;49.478;8.986;2022-10-18T09:44:45;27.00;99.90
32612;DHT22;19030;49.478;8.986;2022-10-18T09:46:56;29.80;88.40
32612;DHT22;19030;49.478;8.986;2022-10-18T09:49:04;31.20;76.10
32612;DHT22;19030;49.478;8.986;2022-10-18T09:51:16;31.50;67.00
32612;DHT22;19030;49.478;8.986;2022-10-18T09:55:39;33.00;58.30
32612;DHT22;19030;49.478;8.986;2022-10-18T09:57:51;34.00;54.50
32612;DHT22;19030;49.478;8.986;2022-10-18T09:59:52;33.50;52.40
32612;DHT22;19030;49.478;8.986;2022-10-18T10:01:53;32.30;54.10
32612;DHT22;19030;49.478;8.986;2022-10-18T10:03:54;30.80;57.10
32612;DHT22;19030;49.478;8.986;2022-10-18T10:06:25;29.40;61.10
32612;DHT22;19030;49.478;8.986;2022-10-18T10:08:35;28.10;65.90
32612;DHT22;19030;49.478;8.986;2022-10-18T10:10:39;26.80;71.10
32612;DHT22;19030;49.478;8.986;2022-10-18T10:12:41;25.60;77.60
32612;DHT22;19030;49.478;8.986;2022-10-18T10:14:43;24.80;84.30
32612;DHT22;19030;49.478;8.986;2022-10-18T10:17:00;24.00;90.10
32612;DHT22;19030;49.478;8.986;2022-10-18T10:19:05;23.30;93.40
32612;DHT22;19030;49.478;8.986;2022-10-18T10:21:11;23.00;96.30
32612;DHT22;19030;49.478;8.986;2022-10-18T10:23:35;23.20;99.40
32612;DHT22;19030;49.478;8.986;2022-10-18T10:25:37;24.80;97.20
32612;DHT22;19030;49.478;8.986;2022-10-18T10:27:42;26.40;92.50
32612;DHT22;19030;49.478;8.986;2022-10-18T10:32:01;27.60;82.90
32612;DHT22;19030;49.478;8.986;2022-10-18T10:34:20;27.90;80.70
32612;DHT22;19030;49.478;8.986;2022-10-18T10:36:20;27.80;79.00
32612;DHT22;19030;49.478;8.986;2022-10-18T10:38:23;27.50;80.50
32612;DHT22;19030;49.478;8.986;2022-10-18T10:40:29;27.10;83.10
32612;DHT22;19030;49.478;8.986;2022-10-18T10:42:30;26.90;83.50
32612;DHT22;19030;49.478;8.986;2022-10-18T10:44:33;26.70;86.30
32612;DHT22;19030;49.478;8.986;2022-10-18T10:46:35;26.40;84.80
32612;DHT22;19030;49.478;8.986;2022-10-18T10:48:54;26.10;87.40
32612;DHT22;19030;49.478;8.986;2022-10-18T10:53:00;25.20;90.10
32612;DHT22;19030;49.478;8.986;2022-10-18T10:55:01;24.90;92.20
32612;DHT22;19030;49.478;8.986;2022-10-18T10:59:18;25.90;93.00
32612;DHT22;19030;49.478;8.986;2022-10-18T11:03:21;27.30;89.90
32612;DHT22;19030;49.478;8.986;2022-10-18T11:05:25;27.20;87.70
32612;DHT22;19030;49.478;8.986;2022-10-18T11:07:35;26.80;86.50
32612;DHT22;19030;49.478;8.986;2022-10-18T11:09:55;26.30;88.00
32612;DHT22;19030;49.478;8.986;2022-10-18T11:14:20;26.70;87.90
32612;DHT22;19030;49.478;8.986;2022-10-18T11:19:13;30.00;73.70
32612;DHT22;19030;49.478;8.986;2022-10-18T11:21:22;30.80;66.10
32612;DHT22;19030;49.478;8.986;2022-10-18T11:23:31;29.90;67.00
32612;DHT22;19030;49.478;8.986;2022-10-18T11:28:59;28.20;72.00
32612;DHT22;19030;49.478;8.986;2022-10-18T11:31:02;26.90;76.70
32612;DHT22;19030;49.478;8.986;2022-10-18T11:35:49;24.60;90.00
32612;DHT22;19030;49.478;8.986;2022-10-18T11:38:00;24.50;91.00
32612;DHT22;19030;49.478;8.986;2022-10-18T11:40:41;24.50;91.20
32612;DHT22;19030;49.478;8.986;2022-10-18T11:42:55;24.70;90.20
32612;DHT22;19030;49.478;8.986;2022-10-18T11:49:51;22.90;94.60
32612;DHT22;19030;49.478;8.986;2022-10-18T12:01:18;21.50;99.90
32612;DHT22;19030;49.478;8.986;2022-10-18T12:03:52;21.60;99.90
32612;DHT22;19030;49.478;8.986;2022-10-18T12:05:56;22.50;99.90
32612;DHT22;19030;49.478;8.986;2022-10-18T12:10:05;25.00;95.20
32612;DHT22;19030;49.478;8.986;2022-10-18T12:12:17;25.20;93.40
32612;DHT22;19030;49.478;8.986;2022-10-18T12:16:29;24.50;94.30
32612;DHT22;19030;49.478;8.986;2022-10-18T12:18:30;23.80;95.10
32612;DHT22;19030;49.478;8.986;2022-10-18T12:20:56;23.30;97.10
32612;DHT22;19030;49.478;8.986;2022-10-18T12:23:03;22.90;99.00
32612;DHT22;19030;49.478;8.986;2022-10-18T12:25:13;22.60;99.90
32612;DHT22;19030;49.478;8.986;2022-10-18T12:27:15;22.40;99.90
32612;DHT22;19030;49.478;8.986;2022-10-18T12:29:30;22.30;99.90
32612;DHT22;19030;49.478;8.986;2022-10-18T12:31:53;22.20;99.90
32612;DHT22;19030;49.478;8.986;2022-10-18T12:33:57;22.10;99.90
32612;DHT22;19030;49.478;8.986;2022-10-18T12:38:25;22.00;99.90
32612;DHT22;19030;49.478;8.986;2022-10-18T12:40:31;21.80;99.90
32612;DHT22;19030;49.478;8.986;2022-10-18T12:42:33;21.60;99.90
32612;DHT22;19030;49.478;8.986;2022-10-18T12:44:40;21.50;99.90
32612;DHT22;19030;49.478;8.986;2022-10-18T12:46:56;21.30;99.90
32612;DHT22;19030;49.478;8.986;2022-10-18T12:49:04;21.20;99.90
32612;DHT22;19030;49.478;8.986;2022-10-18T12:51:21;21.10;99.90
32612;DHT22;19030;49.478;8.986;2022-10-18T12:53:26;21.00;99.90
32612;DHT22;19030;49.478;8.986;2022-10-18T12:55:31;21.00;99.90
32612;DHT22;19030;49.478;8.986;2022-10-18T12:58:00;21.00;99.90
32612;DHT22;19030;49.478;8.986;2022-10-18T13:00:01;20.90;99.90
32612;DHT22;19030;49.478;8.986;2022-10-18T13:09:19;20.60;99.90
32612;DHT22;19030;49.478;8.986;2022-10-18T13:11:28;20.50;99.90
32612;DHT22;19030;49.478;8.986;2022-10-18T13:15:35;20.20;99.90
32612;DHT22;19030;49.478;8.986;2022-10-18T13:20:17;20.10;99.90
32612;DHT22;19030;49.478;8.986;2022-10-18T13:22:25;20.00;99.90
32612;DHT22;19030;49.478;8.986;2022-10-18T13:24:33;19.90;99.90
32612;DHT22;19030;49.478;8.986;2022-10-18T13:26:43;19.80;99.90
32612;DHT22;19030;49.478;8.986;2022-10-18T13:29:01;19.80;99.90
32612;DHT22;19030;49.478;8.986;2022-10-18T13:31:43;19.80;99.90
32612;DHT22;19030;49.478;8.986;2022-10-18T13:33:45;19.80;99.90
32612;DHT22;19030;49.478;8.986;2022-10-18T13:35:57;19.80;99.90
32612;DHT22;19030;49.478;8.986;2022-10-18T13:37:58;19.90;99.90
32612;DHT22;19030;49.478;8.986;2022-10-18T13:40:35;19.90;99.90
32612;DHT22;19030;49.478;8.986;2022-10-18T13:42:35;19.90;99.90
32612;DHT22;19030;49.478;8.986;2022-10-18T13:44:36;20.00;99.90
32612;DHT22;19030;49.478;8.986;2022-10-18T13:50:41;19.90;99.90
32612;DHT22;19030;49.478;8.986;2022-10-18T14:02:33;19.90;99.90
32612;DHT22;19030;49.478;8.986;2022-10-18T14:07:01;20.50;99.90
32612;DHT22;19030;49.478;8.986;2022-10-18T14:09:19;20.80;99.90
32612;DHT22;19030;49.478;8.986;2022-10-18T14:11:35;21.00;99.90
32612;DHT22;19030;49.478;8.986;2022-10-18T14:14:16;21.10;99.90
32612;DHT22;19030;49.478;8.986;2022-10-18T14:16:31;21.10;99.90
32612;DHT22;19030;49.478;8.986;2022-10-18T14:18:39;21.10;99.90
32612;DHT22;19030;49.478;8.986;2022-10-18T14:20:54;21.00;99.90
32612;DHT22;19030;49.478;8.986;2022-10-18T14:23:14;20.70;99.90
32612;DHT22;19030;49.478;8.986;2022-10-18T14:25:27;20.50;99.90
32612;DHT22;19030;49.478;8.986;2022-10-18T14:27:30;20.30;99.90
32612;DHT22;19030;49.478;8.986;2022-10-18T14:29:33;20.10;99.90
32612;DHT22;19030;49.478;8.986;2022-10-18T14:31:34;20.00;99.90
32612;DHT22;19030;49.478;8.986;2022-10-18T14:33:47;19.90;99.90
32612;DHT22;19030;49.478;8.986;2022-10-18T14:36:09;19.80;99.90
32612;DHT22;19030;49.478;8.986;2022-10-18T14:38:14;19.70;99.90
32612;DHT22;19030;49.478;8.986;2022-10-18T14:42:33;19.60;99.90
32612;DHT22;19030;49.478;8.986;2022-10-18T14:44:33;19.50;99.90
32612;DHT22;19030;49.478;8.986;2022-10-18T14:46:50;19.40;99.90
32612;DHT22;19030;49.478;8.986;2022-10-18T14:48:56;19.40;99.90
32612;DHT22;19030;49.478;8.986;2022-10-18T14:50:58;19.30;99.90
32612;DHT22;19030;49.478;8.986;2022-10-18T14:53:05;19.30;99.90
32612;DHT22;19030;49.478;8.986;2022-10-18T14:55:11;19.30;99.90
32612;DHT22;19030;49.478;8.986;2022-10-18T14:57:31;19.30;99.90
32612;DHT22;19030;49.478;8.986;2022-10-18T14:59:44;19.30;99.90
32612;DHT22;19030;49.478;8.986;2022-10-18T15:02:00;19.20;99.90
32612;DHT22;19030;49.478;8.986;2022-10-18T15:04:05;19.20;99.90
32612;DHT22;19030;49.478;8.986;2022-10-18T15:06:11;19.20;99.90
32612;DHT22;19030;49.478;8.986;2022-10-18T15:08:14;19.20;99.90
32612;DHT22;19030;49.478;8.986;2022-10-18T15:10:21;19.20;99.90
32612;DHT22;19030;49.478;8.986;2022-10-18T15:12:22;19.30;99.90
32612;DHT22;19030;49.478;8.986;2022-10-18T15:14:25;19.20;99.90
32612;DHT22;19030;49.478;8.986;2022-10-18T15:16:28;19.20;99.90
32612;DHT22;19030;49.478;8.986;2022-10-18T15:18:30;19.10;99.90
32612;DHT22;19030;49.478;8.986;2022-10-18T15:20:35;19.00;99.90
32612;DHT22;19030;49.478;8.986;2022-10-18T15:22:41;19.00;99.90
32612;DHT22;19030;49.478;8.986;2022-10-18T15:24:42;19.00;99.90
32612;DHT22;19030;49.478;8.986;2022-10-18T15:26:44;18.90;99.90
32612;DHT22;19030;49.478;8.986;2022-10-18T15:28:47;18.90;99.90
32612;DHT22;19030;49.478;8.986;2022-10-18T15:30:50;18.90;99.90
32612;DHT22;19030;49.478;8.986;2022-10-18T15:33:02;18.80;99.90
32612;DHT22;19030;49.478;8.986;2022-10-18T15:35:09;18.80;99.90
32612;DHT22;19030;49.478;8.986;2022-10-18T15:37:36;18.80;99.90
32612;DHT22;19030;49.478;8.986;2022-10-18T15:39:39;18.60;99.90
32612;DHT22;19030;49.478;8.986;2022-10-18T15:41:52;18.60;99.90
32612;DHT22;19030;49.478;8.986;2022-10-18T15:44:05;18.60;99.90
32612;DHT22;19030;49.478;8.986;2022-10-18T15:46:29;18.50;99.90
32612;DHT22;19030;49.478;8.986;2022-10-18T15:52:41;18.40;99.90
32612;DHT22;19030;49.478;8.986;2022-10-18T15:54:42;18.40;99.90